createdAt,value
2022-08-03T00:01:18.300Z,95276.31
2022-08-03T00:03:16.734Z,95274.56
2022-08-03T00:05:15.236Z,95274.41
2022-08-03T00:07:13.571Z,95284.06
2022-08-03T00:09:12.855Z,95277.69
2022-08-03T00:11:11.104Z,95266.94
2022-08-03T00:13:09.766Z,95267.03
2022-08-03T00:15:11.256Z,95273.31
2022-08-03T00:17:13.451Z,95273.41
2022-08-03T00:19:11.872Z,95274.97
2022-08-03T00:21:10.343Z,95270.75
2022-08-03T00:23:08.793Z,95278.09
2022-08-03T00:25:08.022Z,95271.13
2022-08-03T00:27:06.411Z,95273.41
2022-08-03T00:29:06.269Z,95275.16
2022-08-03T00:31:04.515Z,95276.25
2022-08-03T00:33:03.497Z,95265.19
2022-08-03T00:35:08.346Z,95267.69
2022-08-03T00:37:09.730Z,95264.50
2022-08-03T00:39:07.980Z,95271.94
2022-08-03T00:41:06.263Z,95266.88
2022-08-03T00:43:07.175Z,95266.75
2022-08-03T00:45:07.617Z,95267.94
2022-08-03T00:47:05.946Z,95261.06
2022-08-03T00:49:04.434Z,95264.84
2022-08-03T00:51:02.875Z,95271.13
2022-08-03T00:53:01.488Z,95267.78
2022-08-03T00:54:59.864Z,95269.50
2022-08-03T00:56:59.642Z,95268.16
2022-08-03T00:59:00.076Z,95275.75
2022-08-03T01:01:00.223Z,95266.75
2022-08-03T01:02:58.538Z,95273.53
2022-08-03T01:04:57.033Z,95270.00
2022-08-03T01:07:03.408Z,95265.91
2022-08-03T01:09:10.649Z,95268.66
2022-08-03T01:11:16.777Z,95261.34
2022-08-03T01:14:00.250Z,95265.03
2022-08-03T01:15:48.058Z,95256.97
2022-08-03T01:17:57.566Z,95266.31
2022-08-03T01:20:02.039Z,95258.72
2022-08-03T01:22:12.238Z,95259.13
2022-08-03T01:24:23.864Z,95265.09
2022-08-03T01:26:43.807Z,95260.78
2022-08-03T01:29:08.002Z,95256.09
2022-08-03T01:31:10.486Z,95256.44
2022-08-03T01:33:16.759Z,95265.38
2022-08-03T01:35:18.561Z,95266.94
2022-08-03T01:37:29.278Z,95264.19
2022-08-03T01:39:30.057Z,95262.72
2022-08-03T01:41:33.615Z,95265.31
2022-08-03T01:44:26.539Z,95256.28
2022-08-03T01:45:51.257Z,95263.38
2022-08-03T01:47:51.372Z,95271.47
2022-08-03T01:49:51.085Z,95267.78
2022-08-03T01:52:03.498Z,95272.47
2022-08-03T01:54:05.645Z,95265.53
2022-08-03T01:56:06.103Z,95262.59
2022-08-03T01:58:08.075Z,95262.97
2022-08-03T02:00:09.548Z,95257.47
2022-08-03T02:02:28.361Z,95265.34
2022-08-03T02:04:35.186Z,95260.22
2022-08-03T02:07:00.158Z,95271.56
2022-08-03T02:08:56.138Z,95266.53
2022-08-03T02:10:58.368Z,95268.28
2022-08-03T02:12:58.859Z,95269.31
2022-08-03T02:15:00.065Z,95263.88
2022-08-03T02:17:00.481Z,95259.16
2022-08-03T02:18:59.631Z,95261.13
2022-08-03T02:21:01.569Z,95271.78
2022-08-03T02:23:09.572Z,95259.03
2022-08-03T02:25:09.209Z,95262.56
2022-08-03T02:27:15.517Z,95261.94
2022-08-03T02:29:20.244Z,95258.78
2022-08-03T02:31:38.830Z,95265.63
2022-08-03T02:33:43.755Z,95255.69
2022-08-03T02:35:44.055Z,95262.56
2022-08-03T02:37:49.857Z,95261.94
2022-08-03T02:39:53.390Z,95256.22
2022-08-03T02:41:53.859Z,95268.22
2022-08-03T02:44:06.655Z,95266.88
2022-08-03T02:46:06.931Z,95258.78
2022-08-03T02:48:08.058Z,95263.03
2022-08-03T02:50:07.887Z,95262.78
2022-08-03T02:52:10.459Z,95261.66
2022-08-03T02:54:16.634Z,95263.03
2022-08-03T02:56:16.326Z,95262.56
2022-08-03T02:58:15.741Z,95265.56
2022-08-03T03:00:27.247Z,95263.28
2022-08-03T03:02:28.222Z,95267.03
2022-08-03T03:04:31.327Z,95264.81
2022-08-03T03:06:32.051Z,95272.94
2022-08-03T03:08:31.582Z,95273.22
2022-08-03T03:10:32.689Z,95273.75
2022-08-03T03:12:32.586Z,95280.28
2022-08-03T03:14:33.204Z,95280.44
2022-08-03T03:16:33.766Z,95284.28
2022-08-03T03:18:35.552Z,95284.19
2022-08-03T03:20:35.914Z,95289.06
2022-08-03T03:22:35.533Z,95286.25
2022-08-03T03:24:36.047Z,95290.94
2022-08-03T03:26:40.707Z,95294.47
2022-08-03T03:28:41.089Z,95290.63
2022-08-03T03:30:39.818Z,95294.00
2022-08-03T03:32:39.882Z,95294.34
2022-08-03T03:34:39.104Z,95300.97
2022-08-03T03:36:37.460Z,95300.19
2022-08-03T03:38:36.306Z,95303.00
2022-08-03T03:40:36.164Z,95307.00
2022-08-03T03:42:35.973Z,95307.19
2022-08-03T03:44:34.359Z,95306.72
2022-08-03T03:46:33.411Z,95307.53
2022-08-03T03:48:32.268Z,95311.78
2022-08-03T03:50:32.146Z,95307.28
2022-08-03T03:52:30.715Z,95297.59
2022-08-03T03:54:40.088Z,95311.22
2022-08-03T03:56:38.463Z,95311.31
2022-08-03T03:58:38.124Z,95315.97
2022-08-03T04:00:36.582Z,95311.28
2022-08-03T04:02:35.050Z,95305.19
2022-08-03T04:04:51.214Z,95299.91
2022-08-03T04:07:07.288Z,95300.06
2022-08-03T04:09:23.118Z,95301.56
2022-08-03T04:11:30.242Z,95300.97
2022-08-03T04:13:34.068Z,95295.06
2022-08-03T04:15:35.364Z,95292.22
2022-08-03T04:17:34.229Z,95302.88
2022-08-03T04:19:37.052Z,95299.03
2022-08-03T04:21:35.925Z,95296.16
2022-08-03T04:23:36.941Z,95301.09
2022-08-03T04:25:38.833Z,95297.00
2022-08-03T04:27:39.469Z,95303.94
2022-08-03T04:29:46.457Z,95298.75
2022-08-03T04:31:49.712Z,95302.16
2022-08-03T04:33:48.118Z,95299.41
2022-08-03T04:36:02.222Z,95302.53
2022-08-03T04:38:04.322Z,95302.28
2022-08-03T04:40:04.707Z,95305.25
2022-08-03T04:42:09.155Z,95312.47
2022-08-03T04:44:09.811Z,95318.44
2022-08-03T04:46:09.526Z,95318.84
2022-08-03T04:48:09.437Z,95315.97
2022-08-03T04:50:12.981Z,95319.28
2022-08-03T04:52:13.576Z,95308.81
2022-08-03T04:54:14.249Z,95324.31
2022-08-03T04:56:12.779Z,95327.88
2022-08-03T04:58:11.040Z,95318.66
2022-08-03T05:00:10.599Z,95333.50
2022-08-03T05:02:09.202Z,95333.66
2022-08-03T05:04:09.011Z,95321.28
2022-08-03T05:06:11.070Z,95334.50
2022-08-03T05:08:11.035Z,95331.22
2022-08-03T05:10:16.173Z,95333.28
2022-08-03T05:12:15.153Z,95328.13
2022-08-03T05:14:13.434Z,95335.72
2022-08-03T05:16:12.007Z,95337.81
2022-08-03T05:20:13.899Z,95344.22
2022-08-03T05:22:16.798Z,95348.78
2022-08-03T05:24:15.186Z,95352.09
2022-08-03T05:26:13.759Z,95350.44
2022-08-03T05:28:12.052Z,95349.00
2022-08-03T05:30:31.430Z,95347.09
2022-08-03T05:32:29.516Z,95351.03
2022-08-03T05:34:28.153Z,95352.88
2022-08-03T05:36:27.835Z,95353.72
2022-08-03T05:38:28.753Z,95359.50
2022-08-03T05:40:27.413Z,95350.03
2022-08-03T05:42:25.688Z,95351.03
2022-08-03T05:44:25.642Z,95367.53
2022-08-03T05:46:24.303Z,95363.59
2022-08-03T05:48:22.577Z,95361.88
2022-08-03T05:50:21.497Z,95361.97
2022-08-03T05:52:21.139Z,95360.19
2022-08-03T05:54:20.142Z,95367.06
2022-08-03T05:56:18.350Z,95358.53
2022-08-03T05:58:16.687Z,95360.00
2022-08-03T06:00:15.743Z,95360.78
2022-08-03T06:02:14.182Z,95362.44
2022-08-03T06:04:12.508Z,95360.72
2022-08-03T06:06:11.692Z,95354.00
2022-08-03T06:08:11.572Z,95357.66
2022-08-03T06:10:36.291Z,95361.75
2022-08-03T06:12:35.962Z,95374.88
2022-08-03T06:14:34.342Z,95360.31
2022-08-03T06:16:33.845Z,95365.53
2022-08-03T06:18:32.185Z,95369.13
2022-08-03T06:20:30.658Z,95361.97
2022-08-03T06:22:28.951Z,95357.56
2022-08-03T06:24:29.775Z,95366.25
2022-08-03T06:26:29.316Z,95367.91
2022-08-03T06:28:52.934Z,95367.19
2022-08-03T06:30:46.680Z,95370.91
2022-08-03T06:32:52.108Z,95362.31
2022-08-03T06:34:51.582Z,95368.34
2022-08-03T06:36:52.302Z,95365.44
2022-08-03T06:38:50.971Z,95363.75
2022-08-03T06:40:50.984Z,95360.06
2022-08-03T06:42:49.240Z,95365.94
2022-08-03T06:44:48.974Z,95366.75
2022-08-03T06:46:47.819Z,95356.47
2022-08-03T06:48:46.180Z,95359.00
2022-08-03T06:50:44.752Z,95357.66
2022-08-03T06:52:43.034Z,95354.16
2022-08-03T06:54:41.766Z,95352.97
2022-08-03T06:56:41.441Z,95357.53
2022-08-03T06:58:39.912Z,95360.16
2022-08-03T07:00:38.230Z,95363.63
2022-08-03T07:02:36.698Z,95354.06
2022-08-03T07:04:35.081Z,95351.03
2022-08-03T07:06:33.294Z,95351.94
2022-08-03T07:08:33.745Z,95346.16
2022-08-03T07:10:32.302Z,95350.06
2022-08-03T07:12:33.563Z,95341.13
2022-08-03T07:14:32.040Z,95344.78
2022-08-03T07:16:30.252Z,95354.75
2022-08-03T07:18:29.878Z,95352.28
2022-08-03T07:20:32.271Z,95354.06
2022-08-03T07:22:31.256Z,95354.75
2022-08-03T07:24:29.404Z,95348.97
2022-08-03T07:26:27.758Z,95359.94
2022-08-03T07:28:28.123Z,95356.44
2022-08-03T07:30:26.279Z,95355.31
2022-08-03T07:32:24.974Z,95360.34
2022-08-03T07:34:23.293Z,95353.94
2022-08-03T07:36:21.730Z,95354.69
2022-08-03T07:38:21.165Z,95359.94
2022-08-03T07:40:19.648Z,95355.16
2022-08-03T07:42:20.554Z,95350.91
2022-08-03T07:44:20.700Z,95354.06
2022-08-03T07:46:19.086Z,95352.31
2022-08-03T07:48:17.484Z,95350.69
2022-08-03T07:50:15.868Z,95344.72
2022-08-03T07:52:31.912Z,95353.88
2022-08-03T07:54:30.287Z,95352.41
2022-08-03T07:56:28.660Z,95359.03
2022-08-03T07:58:27.012Z,95353.16
2022-08-03T08:00:26.695Z,95352.75
2022-08-03T08:02:25.082Z,95352.25
2022-08-03T08:04:23.425Z,95353.78
2022-08-03T08:06:22.477Z,95351.84
2022-08-03T08:08:20.760Z,95361.22
2022-08-03T08:10:19.148Z,95358.50
2022-08-03T08:12:18.140Z,95360.19
2022-08-03T08:14:16.646Z,95356.19
2022-08-03T08:16:16.854Z,95364.16
2022-08-03T08:18:15.203Z,95359.91
2022-08-03T08:20:18.207Z,95353.59
2022-08-03T08:22:30.095Z,95358.66
2022-08-03T08:24:30.567Z,95358.00
2022-08-03T08:26:29.818Z,95353.69
2022-08-03T08:28:32.899Z,95362.69
2022-08-03T08:30:33.249Z,95355.84
2022-08-03T08:32:32.823Z,95350.06
2022-08-03T08:34:31.158Z,95345.13
2022-08-03T08:36:30.656Z,95348.81
2022-08-03T08:38:29.157Z,95344.38
2022-08-03T08:40:29.304Z,95347.72
2022-08-03T08:42:28.118Z,95344.41
2022-08-03T08:44:26.510Z,95346.59
2022-08-03T08:46:24.944Z,95336.56
2022-08-03T08:48:27.905Z,95347.50
2022-08-03T08:50:27.847Z,95334.69
2022-08-03T08:52:31.965Z,95344.06
2022-08-03T08:54:33.364Z,95338.66
2022-08-03T08:56:33.846Z,95336.38
2022-08-03T08:58:36.418Z,95334.41
2022-08-03T09:00:34.932Z,95334.34
2022-08-03T09:02:33.272Z,95333.88
2022-08-03T09:04:33.412Z,95332.50
2022-08-03T09:06:33.564Z,95325.53
2022-08-03T09:08:33.774Z,95321.03
2022-08-03T09:10:32.286Z,95327.22
2022-08-03T09:12:41.844Z,95323.00
2022-08-03T09:14:54.857Z,95323.50
2022-08-03T09:17:02.222Z,95322.94
2022-08-03T09:19:14.149Z,95318.63
2022-08-03T09:21:37.523Z,95319.19
2022-08-03T09:24:01.508Z,95319.44
2022-08-03T09:26:01.885Z,95323.03
2022-08-03T09:28:11.497Z,95316.00
2022-08-03T09:30:32.550Z,95323.75
2022-08-03T09:32:33.236Z,95315.06
2022-08-03T09:34:33.731Z,95323.91
2022-08-03T09:36:44.755Z,95319.00
2022-08-03T09:38:43.062Z,95311.88
2022-08-03T09:40:41.807Z,95312.56
2022-08-03T09:42:57.631Z,95310.59
2022-08-03T09:44:56.043Z,95321.41
2022-08-03T09:46:56.769Z,95318.25
2022-08-03T09:48:55.516Z,95321.63
2022-08-03T09:50:56.826Z,95319.63
2022-08-03T09:53:03.650Z,95319.75
2022-08-03T09:55:02.894Z,95317.97
2022-08-03T09:57:01.339Z,95312.63
2022-08-03T09:58:59.601Z,95313.75
2022-08-03T10:01:00.691Z,95314.31
2022-08-03T10:03:06.132Z,95319.72
2022-08-03T10:05:05.091Z,95310.78
2022-08-03T10:07:06.378Z,95303.91
2022-08-03T10:09:11.257Z,95298.22
2022-08-03T10:11:09.445Z,95306.13
2022-08-03T10:13:07.891Z,95298.59
2022-08-03T10:15:10.425Z,95298.47
2022-08-03T10:17:28.666Z,95302.19
2022-08-03T10:19:27.061Z,95290.03
2022-08-03T10:21:25.462Z,95296.94
2022-08-03T10:23:25.163Z,95292.81
2022-08-03T10:25:33.286Z,95290.56
2022-08-03T10:27:35.309Z,95292.59
2022-08-03T10:29:38.905Z,95293.97
2022-08-03T10:31:55.913Z,95294.50
2022-08-03T10:34:00.592Z,95286.88
2022-08-03T10:36:00.811Z,95286.88
2022-08-03T10:38:01.682Z,95285.84
2022-08-03T10:40:01.782Z,95286.94
2022-08-03T10:42:02.727Z,95291.13
2022-08-03T10:44:08.126Z,95286.22
2022-08-03T10:46:09.624Z,95292.53
2022-08-03T10:48:09.218Z,95293.28
2022-08-03T10:50:09.095Z,95286.44
2022-08-03T10:52:13.393Z,95291.13
2022-08-03T10:55:03.564Z,95291.22
2022-08-03T10:57:25.420Z,95289.16
2022-08-03T11:00:04.849Z,95285.69
2022-08-03T11:02:03.239Z,95282.91
2022-08-03T11:04:18.696Z,95279.06
2022-08-03T11:06:19.130Z,95280.81
2022-08-03T11:08:29.264Z,95278.44
2022-08-03T11:10:37.019Z,95270.69
2022-08-03T11:12:37.438Z,95277.97
2022-08-03T11:14:48.022Z,95274.56
2022-08-03T11:16:48.144Z,95269.19
2022-08-03T11:18:58.415Z,95265.72
2022-08-03T11:20:58.327Z,95256.69
2022-08-03T11:22:59.655Z,95264.59
2022-08-03T11:25:02.025Z,95257.59
2022-08-03T11:27:18.729Z,95260.91
2022-08-03T11:29:32.213Z,95255.28
2022-08-03T11:31:54.487Z,95247.78
2022-08-03T11:34:06.023Z,95247.41
2022-08-03T11:36:05.204Z,95252.09
2022-08-03T11:38:08.456Z,95241.47
2022-08-03T11:40:07.846Z,95253.97
2022-08-03T11:42:40.227Z,95243.81
2022-08-03T11:44:47.454Z,95248.16
2022-08-03T11:46:46.170Z,95248.41
2022-08-03T11:48:50.420Z,95240.97
2022-08-03T11:50:49.014Z,95243.78
2022-08-03T11:52:47.368Z,95235.69
2022-08-03T11:54:46.663Z,95236.25
2022-08-03T11:56:47.073Z,95241.22
2022-08-03T11:59:00.984Z,95236.81
2022-08-03T12:01:11.522Z,95236.50
2022-08-03T12:03:11.916Z,95240.75
2022-08-03T12:05:10.762Z,95233.25
2022-08-03T12:07:08.925Z,95233.38
2022-08-03T12:09:16.830Z,95231.75
2022-08-03T12:11:18.912Z,95234.47
2022-08-03T12:14:26.892Z,95228.34
2022-08-03T12:15:38.616Z,95239.38
2022-08-03T12:17:39.690Z,95236.16
2022-08-03T12:19:43.375Z,95233.34
2022-08-03T12:21:57.178Z,95228.06
2022-08-03T12:24:00.414Z,95224.06
2022-08-03T12:26:04.119Z,95228.53
2022-08-03T12:28:36.204Z,95220.78
2022-08-03T12:30:28.861Z,95218.72
2022-08-03T12:32:27.543Z,95223.69
2022-08-03T12:34:47.358Z,95221.28
2022-08-03T12:36:53.231Z,95219.16
2022-08-03T12:38:57.495Z,95219.47
2022-08-03T12:41:03.892Z,95213.34
2022-08-03T12:43:02.440Z,95213.44
2022-08-03T12:45:00.797Z,95215.75
2022-08-03T12:47:00.173Z,95214.75
2022-08-03T12:49:08.120Z,95205.66
2022-08-03T12:51:11.872Z,95210.50
2022-08-03T12:53:12.480Z,95207.53
2022-08-03T12:55:21.556Z,95207.56
2022-08-03T12:57:19.786Z,95203.34
2022-08-03T12:59:32.509Z,95199.91
2022-08-03T13:01:38.529Z,95200.97
2022-08-03T13:03:54.647Z,95194.09
2022-08-03T13:05:53.332Z,95188.81
2022-08-03T13:07:52.958Z,95191.75
2022-08-03T13:09:53.512Z,95190.69
2022-08-03T13:12:08.245Z,95182.88
2022-08-03T13:14:06.501Z,95187.69
2022-08-03T13:16:05.302Z,95184.44
2022-08-03T13:18:03.552Z,95187.47
2022-08-03T13:20:01.950Z,95184.91
2022-08-03T13:22:04.119Z,95188.34
2022-08-03T13:24:04.694Z,95189.63
2022-08-03T13:26:02.944Z,95192.56
2022-08-03T13:28:05.885Z,95190.91
2022-08-03T13:30:06.182Z,95193.25
2022-08-03T13:32:05.792Z,95193.06
2022-08-03T13:34:04.040Z,95197.94
2022-08-03T13:36:02.327Z,95198.84
2022-08-03T13:38:00.750Z,95195.09
2022-08-03T13:40:02.902Z,95196.88
2022-08-03T13:42:02.709Z,95191.19
2022-08-03T13:44:25.402Z,95191.63
2022-08-03T13:46:20.384Z,95190.97
2022-08-03T13:48:35.974Z,95193.13
2022-08-03T13:50:39.853Z,95189.34
2022-08-03T13:52:41.441Z,95197.44
2022-08-03T13:54:39.913Z,95194.19
2022-08-03T13:56:52.657Z,95195.69
2022-08-03T13:58:51.219Z,95192.56
2022-08-03T14:00:49.619Z,95191.41
2022-08-03T14:02:47.845Z,95194.31
2022-08-03T14:04:46.078Z,95193.97
2022-08-03T14:06:45.922Z,95196.03
2022-08-03T14:08:44.842Z,95185.63
2022-08-03T14:10:45.316Z,95188.09
2022-08-03T14:12:45.093Z,95191.53
2022-08-03T14:14:43.419Z,95183.47
2022-08-03T14:16:41.949Z,95189.69
2022-08-03T14:18:40.167Z,95189.59
2022-08-03T14:20:47.692Z,95187.50
2022-08-03T14:22:49.959Z,95186.53
2022-08-03T14:24:49.380Z,95188.41
2022-08-03T14:26:47.913Z,95191.53
2022-08-03T14:28:47.965Z,95193.25
2022-08-03T14:30:46.602Z,95183.97
2022-08-03T14:32:45.133Z,95186.50
2022-08-03T14:34:44.568Z,95184.72
2022-08-03T14:36:45.359Z,95193.41
2022-08-03T14:38:43.551Z,95193.31
2022-08-03T14:40:42.399Z,95187.09
2022-08-03T14:42:40.685Z,95181.50
2022-08-03T14:44:40.455Z,95189.88
2022-08-03T14:46:39.208Z,95203.75
2022-08-03T14:50:34.228Z,95195.50
2022-08-03T14:50:56.842Z,95206.03
2022-08-03T14:52:55.329Z,95204.66
2022-08-03T14:54:53.579Z,95204.91
2022-08-03T14:56:51.771Z,95207.09
2022-08-03T14:58:50.233Z,95202.59
2022-08-03T15:00:51.185Z,95201.41
2022-08-03T15:02:49.642Z,95203.28
2022-08-03T15:04:48.148Z,95196.25
2022-08-03T15:06:46.625Z,95201.75
2022-08-03T15:09:13.816Z,95204.66
2022-08-03T15:11:08.497Z,95207.22
2022-08-03T15:13:06.903Z,95203.56
2022-08-03T15:15:07.485Z,95202.34
2022-08-03T15:17:07.763Z,95200.72
2022-08-03T15:20:04.061Z,95200.38
2022-08-03T15:21:46.513Z,95216.47
2022-08-03T15:23:42.974Z,95225.56
2022-08-03T15:26:31.647Z,95220.00
2022-08-03T15:28:03.399Z,95225.22
2022-08-03T15:30:10.303Z,95226.28
2022-08-03T15:32:10.170Z,95239.53
2022-08-03T15:34:08.575Z,95236.91
2022-08-03T15:36:07.387Z,95240.63
2022-08-03T15:38:09.227Z,95246.91
2022-08-03T15:40:09.029Z,95256.94
2022-08-03T15:42:07.391Z,95259.25
2022-08-03T15:44:09.159Z,95252.72
2022-08-03T15:48:27.650Z,95266.97
2022-08-03T15:50:25.984Z,95274.63
2022-08-03T15:52:24.281Z,95263.06
2022-08-03T15:54:22.513Z,95253.72
2022-08-03T15:56:21.085Z,95240.72
2022-08-03T15:59:11.880Z,95242.50
2022-08-03T16:00:37.840Z,95243.50
2022-08-03T16:02:36.887Z,95247.34
2022-08-03T16:04:36.494Z,95238.94
2022-08-03T16:06:36.301Z,95238.13
2022-08-03T16:08:35.766Z,95237.13
2022-08-03T16:10:34.074Z,95238.03
2022-08-03T16:12:32.366Z,95231.47
2022-08-03T16:14:34.745Z,95231.94
2022-08-03T16:16:39.799Z,95256.53
2022-08-03T16:18:39.258Z,95252.28
2022-08-03T16:20:39.054Z,95253.72
2022-08-03T16:22:44.496Z,95246.88
2022-08-03T16:24:42.830Z,95256.44
2022-08-03T16:26:41.147Z,95252.53
2022-08-03T16:28:39.653Z,95247.38
2022-08-03T16:30:37.966Z,95251.13
2022-08-03T16:32:38.278Z,95247.84
2022-08-03T16:34:37.377Z,95248.06
2022-08-03T16:36:37.667Z,95243.53
2022-08-03T16:38:36.087Z,95242.72
2022-08-03T16:40:34.693Z,95247.88
2022-08-03T16:42:35.066Z,95249.53
2022-08-03T16:44:33.460Z,95248.69
2022-08-03T16:46:31.686Z,95243.53
2022-08-03T16:48:30.101Z,95242.66
2022-08-03T16:50:28.284Z,95246.78
2022-08-03T16:52:28.192Z,95244.09
2022-08-03T16:54:28.046Z,95247.81
2022-08-03T16:56:27.763Z,95256.25
2022-08-03T16:58:41.100Z,95249.84
2022-08-03T17:00:41.815Z,95255.84
2022-08-03T17:02:48.350Z,95249.81
2022-08-03T17:04:47.384Z,95250.28
2022-08-03T17:06:46.075Z,95239.09
2022-08-03T17:08:52.344Z,95242.41
2022-08-03T17:10:53.823Z,95249.03
2022-08-03T17:12:52.191Z,95241.81
2022-08-03T17:14:50.548Z,95245.31
2022-08-03T17:16:52.939Z,95247.78
2022-08-03T17:18:54.236Z,95244.47
2022-08-03T17:20:55.832Z,95239.28
2022-08-03T17:24:58.724Z,95239.88
2022-08-03T17:27:00.949Z,95239.72
2022-08-03T17:29:12.546Z,95244.47
2022-08-03T17:31:22.956Z,95250.88
2022-08-03T17:33:35.585Z,95250.06
2022-08-03T17:35:36.821Z,95255.00
2022-08-03T17:37:57.463Z,95249.44
2022-08-03T17:39:59.119Z,95247.38
2022-08-03T17:42:00.973Z,95249.81
2022-08-03T17:44:16.011Z,95239.47
2022-08-03T17:46:19.674Z,95245.91
2022-08-03T17:48:18.571Z,95246.31
2022-08-03T17:50:24.676Z,95242.78
2022-08-03T17:52:32.118Z,95243.56
2022-08-03T17:55:51.989Z,95246.84
2022-08-03T17:57:22.424Z,95247.91
2022-08-03T17:59:51.456Z,95261.41
2022-08-03T18:02:21.075Z,95259.78
2022-08-03T18:04:31.816Z,95258.34
2022-08-03T18:06:31.723Z,95260.84
2022-08-03T18:08:32.489Z,95266.44
2022-08-03T18:10:36.125Z,95256.13
2022-08-03T18:12:54.225Z,95267.06
2022-08-03T18:15:01.169Z,95267.47
2022-08-03T18:17:02.847Z,95270.16
2022-08-03T18:19:09.652Z,95272.22
2022-08-03T18:21:16.951Z,95273.25
2022-08-03T18:23:24.882Z,95280.03
2022-08-03T18:25:44.440Z,95279.00
2022-08-03T18:27:50.269Z,95281.28
2022-08-03T18:29:49.848Z,95286.81
2022-08-03T18:32:02.628Z,95284.97
2022-08-03T18:34:17.830Z,95288.66
2022-08-03T18:36:30.378Z,95290.06
2022-08-03T18:38:31.674Z,95294.19
2022-08-03T18:40:30.330Z,95294.75
2022-08-03T18:42:28.669Z,95300.72
2022-08-03T18:44:46.497Z,95307.31
2022-08-03T18:47:08.013Z,95297.19
2022-08-03T18:49:27.528Z,95314.75
2022-08-03T18:51:33.922Z,95318.28
2022-08-03T18:54:03.316Z,95314.19
2022-08-03T18:56:07.187Z,95320.63
2022-08-03T18:58:18.232Z,95318.97
2022-08-03T19:00:24.437Z,95317.34
2022-08-03T19:02:37.137Z,95321.66
2022-08-03T19:04:41.144Z,95322.69
2022-08-03T19:06:44.910Z,95321.25
2022-08-03T19:08:48.226Z,95320.22
2022-08-03T19:10:57.481Z,95329.84
2022-08-03T19:12:59.924Z,95322.47
2022-08-03T19:15:06.173Z,95326.94
2022-08-03T19:17:13.203Z,95324.06
2022-08-03T19:19:14.648Z,95324.88
2022-08-03T19:21:16.490Z,95327.31
2022-08-03T19:23:15.635Z,95328.44
2022-08-03T19:25:13.859Z,95342.00
2022-08-03T19:27:13.125Z,95344.19
2022-08-03T19:29:15.451Z,95331.63
2022-08-03T19:31:15.361Z,95326.72
2022-08-03T19:33:16.951Z,95337.19
2022-08-03T19:35:18.910Z,95335.75
2022-08-03T19:37:38.713Z,95336.69
2022-08-03T19:39:38.608Z,95332.91
2022-08-03T19:41:41.890Z,95330.81
2022-08-03T19:43:53.411Z,95332.00
2022-08-03T19:46:06.103Z,95337.56
2022-08-03T19:48:09.998Z,95340.47
2022-08-03T19:50:13.871Z,95339.38
2022-08-03T19:52:13.013Z,95340.13
2022-08-03T19:54:16.300Z,95344.13
2022-08-03T19:56:16.807Z,95331.13
2022-08-03T19:58:17.781Z,95335.78
2022-08-03T20:00:30.523Z,95326.22
2022-08-03T20:02:35.791Z,95326.03
2022-08-03T20:04:34.362Z,95326.28
2022-08-03T20:06:34.410Z,95324.38
2022-08-03T20:08:35.071Z,95327.06
2022-08-03T20:10:34.490Z,95329.94
2022-08-03T20:12:39.213Z,95336.50
2022-08-03T20:14:40.200Z,95336.34
2022-08-03T20:16:42.752Z,95336.94
2022-08-03T20:18:41.106Z,95336.22
2022-08-03T20:20:41.325Z,95334.72
2022-08-03T20:22:47.762Z,95340.28
2022-08-03T20:24:52.563Z,95342.53
2022-08-03T20:26:55.462Z,95336.44
2022-08-03T20:28:59.476Z,95353.06
2022-08-03T20:31:07.636Z,95344.66
2022-08-03T20:33:06.009Z,95349.50
2022-08-03T20:35:10.036Z,95351.53
2022-08-03T20:37:12.078Z,95346.09
2022-08-03T20:39:11.994Z,95353.44
2022-08-03T20:41:10.385Z,95349.34
2022-08-03T20:43:09.457Z,95359.91
2022-08-03T20:45:13.946Z,95356.63
2022-08-03T20:47:13.245Z,95356.75
2022-08-03T20:49:23.806Z,95362.34
2022-08-03T20:51:49.543Z,95362.84
2022-08-03T20:53:57.381Z,95361.44
2022-08-03T20:56:02.993Z,95359.88
2022-08-03T20:58:01.753Z,95361.97
2022-08-03T21:00:22.171Z,95361.38
2022-08-03T21:02:30.558Z,95364.88
2022-08-03T21:04:29.558Z,95370.56
2022-08-03T21:06:35.513Z,95359.78
2022-08-03T21:08:46.906Z,95370.78
2022-08-03T21:10:47.673Z,95374.47
2022-08-03T21:12:52.137Z,95377.97
2022-08-03T21:15:03.394Z,95372.75
2022-08-03T21:17:14.020Z,95382.50
2022-08-03T21:19:19.197Z,95385.91
2022-08-03T21:21:20.494Z,95381.38
2022-08-03T21:23:41.554Z,95384.38
2022-08-03T21:25:40.666Z,95387.25
2022-08-03T21:27:39.121Z,95382.84
2022-08-03T21:29:53.332Z,95383.59
2022-08-03T21:31:52.864Z,95387.84
2022-08-03T21:33:53.705Z,95381.13
2022-08-03T21:35:52.372Z,95380.69
2022-08-03T21:38:12.288Z,95392.56
2022-08-03T21:40:13.289Z,95387.78
2022-08-03T21:42:11.725Z,95391.84
2022-08-03T21:44:10.094Z,95397.69
2022-08-03T21:46:12.238Z,95395.38
2022-08-03T21:48:15.306Z,95393.28
2022-08-03T21:50:14.985Z,95395.03
2022-08-03T21:52:14.971Z,95395.38
2022-08-03T21:54:14.856Z,95395.69
2022-08-03T21:56:17.916Z,95391.91
2022-08-03T21:58:20.072Z,95387.38
2022-08-03T22:00:20.698Z,95380.59
2022-08-03T22:02:24.406Z,95386.09
2022-08-03T22:04:53.174Z,95394.88
2022-08-03T22:06:43.985Z,95393.38
2022-08-03T22:08:42.422Z,95401.47
2022-08-03T22:10:41.179Z,95395.31
2022-08-03T22:12:39.920Z,95400.00
2022-08-03T22:14:38.413Z,95398.97
2022-08-03T22:16:36.650Z,95408.91
2022-08-03T22:18:39.251Z,95401.19
2022-08-03T22:20:37.780Z,95404.22
2022-08-03T22:22:37.492Z,95396.66
2022-08-03T22:24:37.897Z,95403.13
2022-08-03T22:26:37.178Z,95395.50
2022-08-03T22:28:35.534Z,95403.69
2022-08-03T22:30:34.251Z,95396.41
2022-08-03T22:32:33.496Z,95397.59
2022-08-03T22:34:33.672Z,95404.50
2022-08-03T22:36:32.723Z,95400.91
2022-08-03T22:38:31.883Z,95391.72
2022-08-03T22:40:30.347Z,95388.31
2022-08-03T22:42:28.618Z,95390.25
2022-08-03T22:44:27.460Z,95390.34
2022-08-03T22:46:28.508Z,95395.00
2022-08-03T22:48:28.873Z,95401.38
2022-08-03T22:50:33.964Z,95404.41
2022-08-03T22:52:32.622Z,95398.09
2022-08-03T22:54:32.909Z,95399.81
2022-08-03T22:56:31.466Z,95407.72
2022-08-03T22:58:31.243Z,95394.56
2022-08-03T23:00:29.446Z,95398.81
2022-08-03T23:02:29.945Z,95397.78
2022-08-03T23:04:29.930Z,95397.41
2022-08-03T23:06:33.864Z,95397.03
2022-08-03T23:08:34.030Z,95398.03
2022-08-03T23:10:35.786Z,95401.53
2022-08-03T23:12:37.188Z,95392.44
2022-08-03T23:14:40.078Z,95401.84
2022-08-03T23:16:40.534Z,95392.44
2022-08-03T23:18:43.550Z,95397.63
2022-08-03T23:20:42.410Z,95405.53
2022-08-03T23:22:45.340Z,95399.16
2022-08-03T23:24:46.427Z,95401.13
2022-08-03T23:26:45.049Z,95395.41
2022-08-03T23:28:47.999Z,95398.97
2022-08-03T23:30:47.443Z,95403.31
2022-08-03T23:32:47.032Z,95409.91
2022-08-03T23:35:13.983Z,95404.41
2022-08-03T23:37:14.842Z,95407.13
2022-08-03T23:39:15.858Z,95406.38
2022-08-03T23:41:16.110Z,95407.50
2022-08-03T23:43:45.119Z,95399.25
2022-08-03T23:45:37.731Z,95410.19
2022-08-03T23:47:46.365Z,95405.53
2022-08-03T23:49:45.627Z,95399.06
2022-08-03T23:51:53.440Z,95405.94
2022-08-03T23:54:02.226Z,95406.44
2022-08-03T23:56:13.816Z,95401.38
2022-08-03T23:58:23.181Z,95407.53
